Time;durP1;ratioP1;P1;durP2;ratioP2;P2;SDS_P1;SDS_P2;PMS_P1;PMS_P2;Temp;Humidity;BMP_temperature;BMP_pressure;BME280_temperature;BME280_humidity;BME280_pressure;Samples;Min_cycle;Max_cycle;Signal;HPM_P1;HPM_P2
2021/01/09 00:00:36;;;;;;;24.73;18.87;;;;;;;1.73;67.40;100121.56;1726507;82;21209;-89
2021/01/09 00:03:03;;;;;;;27.90;19.53;;;;;;;1.69;67.53;100123.62;1724310;82;21785;-88
2021/01/09 00:05:32;;;;;;;26.27;19.17;;;;;;;1.64;67.74;100124.54;1694056;82;21093;-89
2021/01/09 00:08:00;;;;;;;30.13;21.40;;;;;;;1.64;67.95;100120.59;1646157;85;21346;-88
2021/01/09 00:10:28;;;;;;;32.97;21.93;;;;;;;1.58;68.08;100124.23;1612071;88;21228;-90
2021/01/09 00:12:55;;;;;;;25.50;18.43;;;;;;;1.55;68.37;100124.03;1639821;87;21326;-89
2021/01/09 00:15:23;;;;;;;29.47;22.33;;;;;;;1.50;68.48;100127.55;1643568;85;21232;-90
2021/01/09 00:17:50;;;;;;;31.17;22.30;;;;;;;1.50;68.49;100127.05;1612209;88;21250;-89
2021/01/09 00:20:17;;;;;;;31.10;22.63;;;;;;;1.64;68.30;100131.11;1639334;85;21222;-88
2021/01/09 00:22:44;;;;;;;29.77;21.40;;;;;;;1.68;68.34;100135.13;1635897;86;21274;-86
2021/01/09 00:25:15;;;;;;;33.27;22.20;;;;;;;1.66;68.42;100130.48;1616665;88;21278;-88
2021/01/09 00:27:43;;;;;;;25.23;18.23;;;;;;;1.64;68.50;100132.88;1618950;87;21164;-89
2021/01/09 00:30:11;;;;;;;30.50;22.67;;;;;;;1.61;68.72;100130.05;1653148;85;21192;-88
2021/01/09 00:32:40;;;;;;;31.97;23.53;;;;;;;1.60;68.75;100126.24;1647773;85;21199;-91
2021/01/09 00:35:17;;;;;;;23.90;18.77;;;;;;;1.64;68.70;100125.85;1647620;86;21225;-92
2021/01/09 00:37:46;;;;;;;28.63;20.73;;;;;;;1.63;68.80;100129.44;1690538;83;21349;-88
2021/01/09 00:40:14;;;;;;;29.73;23.03;;;;;;;1.58;68.77;100133.43;1666077;85;21192;-90
2021/01/09 00:42:44;;;;;;;29.13;21.73;;;;;;;1.33;68.74;100083.06;1669364;85;21138;-89
2021/01/09 00:45:12;;;;;;;30.53;21.53;;;;;;;1.68;68.77;100129.05;1665444;84;21228;-92
2021/01/09 00:47:40;;;;;;;31.40;22.47;;;;;;;1.67;68.92;100129.50;1676115;84;21224;-89
2021/01/09 00:50:09;;;;;;;32.23;22.63;;;;;;;1.66;68.93;100127.04;1671132;85;21240;-90
2021/01/09 00:52:36;;;;;;;30.77;22.47;;;;;;;1.65;68.99;100124.87;1674887;84;21360;-90
2021/01/09 00:55:05;;;;;;;31.80;25.80;;;;;;;1.65;69.04;100124.05;1653707;85;21168;-88
2021/01/09 00:57:34;;;;;;;31.13;23.57;;;;;;;1.69;68.96;100120.17;1653525;85;21192;-87
2021/01/09 01:00:05;;;;;;;34.17;23.60;;;;;;;1.70;68.93;100121.85;1676784;84;21220;-87
2021/01/09 01:02:33;;;;;;;35.77;25.63;;;;;;;1.68;68.92;100119.35;1657164;84;21209;-86
2021/01/09 01:05:01;;;;;;;26.30;20.63;;;;;;;1.22;68.89;100047.23;1674698;83;21159;-84
2021/01/09 01:07:34;;;;;;;32.10;23.53;;;;;;;1.65;69.09;100115.67;1672811;84;21772;-90
2021/01/09 01:09:59;;;;;;;30.73;21.90;;;;;;;1.66;69.04;100109.47;1664712;84;21204;-87
2021/01/09 01:12:28;;;;;;;34.07;24.60;;;;;;;1.62;69.19;100110.71;1668073;84;21207;-86
2021/01/09 01:14:56;;;;;;;31.77;21.20;;;;;;;1.62;69.14;100107.23;1654591;85;21228;-88
2021/01/09 01:17:23;;;;;;;30.27;22.60;;;;;;;1.61;69.43;100115.61;1673921;84;22493;-88
2021/01/09 01:19:51;;;;;;;34.37;24.30;;;;;;;1.62;69.37;100110.71;1677621;84;21200;-90
2021/01/09 01:22:18;;;;;;;29.73;22.27;;;;;;;1.60;69.41;100117.91;1670665;84;21196;-89
2021/01/09 01:24:46;;;;;;;34.33;25.47;;;;;;;1.63;69.51;100114.16;1676145;84;21203;-90
2021/01/09 01:27:16;;;;;;;33.63;24.50;;;;;;;1.59;69.42;100116.23;1685650;84;21247;-89
2021/01/09 01:29:45;;;;;;;32.27;23.13;;;;;;;1.36;69.39;100070.98;1655137;84;22286;-88
2021/01/09 01:32:12;;;;;;;34.17;24.53;;;;;;;1.61;69.53;100109.53;1676090;84;21224;-90
2021/01/09 01:34:40;;;;;;;36.73;26.37;;;;;;;1.65;69.46;100109.59;1675090;84;21176;-90
2021/01/09 01:37:07;;;;;;;32.67;24.47;;;;;;;1.62;69.54;100109.39;1674923;84;21129;-88
2021/01/09 01:39:37;;;;;;;34.30;25.80;;;;;;;1.69;69.52;100103.09;1675618;85;21208;-88
2021/01/09 01:42:07;;;;;;;27.27;21.13;;;;;;;1.83;69.19;100099.22;1688582;83;22109;-88
2021/01/09 01:44:36;;;;;;;35.43;23.00;;;;;;;1.85;69.08;100094.20;1676835;84;21590;-87
2021/01/09 01:47:04;;;;;;;33.80;24.40;;;;;;;0.80;69.20;99941.13;1674580;85;21171;-89
2021/01/09 01:49:32;;;;;;;33.20;22.20;;;;;;;1.74;69.50;100103.03;1654785;86;21194;-89
2021/01/09 01:51:59;;;;;;;29.03;21.57;;;;;;;1.74;69.55;100097.78;1678078;85;21261;-88
2021/01/09 01:54:26;;;;;;;32.97;23.17;;;;;;;1.67;69.61;100094.52;1652119;85;21224;-87
2021/01/09 01:56:57;;;;;;;33.97;25.13;;;;;;;1.59;69.79;100090.45;1696134;84;21172;-87
2021/01/09 01:59:24;;;;;;;40.73;31.13;;;;;;;1.64;69.78;100093.02;1691662;83;21347;-87
2021/01/09 02:01:54;;;;;;;43.43;32.43;;;;;;;1.63;69.87;100091.83;1674187;84;21191;-89
2021/01/09 02:04:21;;;;;;;43.07;31.90;;;;;;;1.57;70.04;100091.06;1687771;84;21210;-89
2021/01/09 02:06:49;;;;;;;42.93;31.80;;;;;;;1.54;70.26;100086.44;1673037;83;21163;-86
2021/01/09 02:09:21;;;;;;;36.13;25.87;;;;;;;1.53;70.35;100086.56;1613933;86;21186;-87
2021/01/09 02:12:14;;;;;;;38.37;27.23;;;;;;;1.52;70.36;100086.20;1662733;84;21213;-87
2021/01/09 02:14:56;;;;;;;41.57;29.33;;;;;;;1.53;70.31;100086.08;1635555;87;21268;-87
2021/01/09 02:17:25;;;;;;;36.83;26.50;;;;;;;1.49;70.41;100081.24;1635696;86;21322;-88
2021/01/09 02:19:53;;;;;;;37.43;27.07;;;;;;;1.52;70.46;100086.20;1668205;82;21128;-86
2021/01/09 02:22:20;;;;;;;36.10;26.53;;;;;;;1.52;70.43;100076.52;1603976;84;21189;-87
2021/01/09 02:24:47;;;;;;;37.30;26.10;;;;;;;1.59;70.29;100077.31;1626691;85;21157;-86
2021/01/09 02:27:14;;;;;;;36.07;24.43;;;;;;;1.59;70.37;100079.94;1640872;84;21245;-87
2021/01/09 02:29:49;;;;;;;34.60;24.60;;;;;;;1.63;70.27;100077.37;1645964;84;21187;-88
2021/01/09 02:32:21;;;;;;;29.80;22.63;;;;;;;1.76;70.02;100074.00;1652947;84;21216;-88
2021/01/09 02:34:53;;;;;;;36.17;26.20;;;;;;;1.81;69.73;100079.67;1641559;86;21226;-87
2021/01/09 02:37:21;;;;;;;35.53;27.00;;;;;;;1.72;69.94;100081.32;1619286;87;21186;-87
2021/01/09 02:39:50;;;;;;;33.27;24.87;;;;;;;1.66;70.14;100073.17;1640494;87;21192;-87
2021/01/09 02:42:18;;;;;;;38.30;26.30;;;;;;;1.64;70.27;100065.88;1653732;86;21216;-87
2021/01/09 02:44:49;;;;;;;41.70;28.87;;;;;;;1.62;70.23;100066.05;1664750;86;21147;-85
2021/01/09 02:47:17;;;;;;;38.60;27.17;;;;;;;1.64;70.16;100066.73;1654318;87;21201;-88
2021/01/09 02:49:45;;;;;;;39.23;26.70;;;;;;;1.65;70.16;100064.93;1621897;87;21241;-87
2021/01/09 02:52:12;;;;;;;37.30;26.40;;;;;;;1.64;70.31;100063.26;1616713;88;21231;-86
2021/01/09 02:54:39;;;;;;;36.30;26.03;;;;;;;1.70;70.26;100063.55;1637970;86;21182;-85
2021/01/09 02:57:06;;;;;;;38.90;27.20;;;;;;;1.71;70.21;100064.37;1620090;88;21190;-86
2021/01/09 02:59:33;;;;;;;33.47;25.43;;;;;;;1.74;70.12;100064.93;1638036;86;21433;-86
2021/01/09 03:02:01;;;;;;;37.93;26.80;;;;;;;1.75;70.19;100065.75;1636207;87;21206;-87
2021/01/09 03:04:28;;;;;;;36.30;25.20;;;;;;;1.81;70.03;100063.05;1620913;88;21534;-85
2021/01/09 03:06:55;;;;;;;37.00;27.60;;;;;;;1.94;69.81;100068.86;1635973;86;21180;-85
2021/01/09 03:09:22;;;;;;;33.57;23.63;;;;;;;1.98;69.59;100071.58;1668882;84;21192;-86
2021/01/09 03:11:50;;;;;;;35.63;26.27;;;;;;;1.95;69.80;100073.16;1637645;87;21354;-85
2021/01/09 03:14:17;;;;;;;39.70;27.63;;;;;;;1.89;69.74;100067.98;1669840;84;21224;-86
2021/01/09 03:16:44;;;;;;;38.83;28.80;;;;;;;1.83;69.83;100066.38;1638623;86;21764;-84
2021/01/09 03:19:12;;;;;;;37.57;25.77;;;;;;;1.78;69.96;100072.05;1653099;84;21338;-85
2021/01/09 03:21:40;;;;;;;37.77;28.17;;;;;;;1.77;70.15;100065.62;1630213;87;21216;-85
2021/01/09 03:24:09;;;;;;;35.57;24.10;;;;;;;1.75;70.18;100073.17;1666592;85;21187;-87
2021/01/09 03:26:36;;;;;;;36.33;26.33;;;;;;;1.71;70.21;100065.69;1667663;84;21465;-86
2021/01/09 03:29:03;;;;;;;36.47;27.07;;;;;;;1.73;70.24;100065.91;1672861;85;21625;-84
2021/01/09 03:31:31;;;;;;;37.57;26.90;;;;;;;1.86;70.08;100063.48;1670918;85;21211;-86
2021/01/09 03:33:59;;;;;;;37.50;25.80;;;;;;;1.89;70.15;100058.78;1671398;84;21210;-85
2021/01/09 03:36:26;;;;;;;40.00;26.03;;;;;;;1.88;70.13;100066.80;1624333;87;21120;-90
2021/01/09 03:38:54;;;;;;;41.47;26.13;;;;;;;1.86;70.17;100069.55;1637928;86;21635;-89
2021/01/09 03:41:21;;;;;;;31.73;23.43;;;;;;;1.82;70.21;100068.67;1634307;86;21211;-89
2021/01/09 03:43:51;;;;;;;32.27;23.93;;;;;;;1.77;70.22;100070.38;1624574;87;21218;-89
2021/01/09 03:46:37;;;;;;;;;;;;;;;;;;;;;
2021/01/09 03:59:58;;;;;;;31.57;20.87;;;;;;;1.61;71.09;100067.00;1737894;80;24972;-92
2021/01/09 04:03:11;;;;;;;37.47;25.37;;;;;;;1.51;71.42;100063.55;1778568;79;23059;-92
2021/01/09 04:05:44;;;;;;;37.57;25.83;;;;;;;1.42;71.53;100074.86;1753708;79;21243;-91
2021/01/09 04:08:21;;;;;;;37.33;25.33;;;;;;;1.42;71.70;100079.62;1703946;81;21678;-91
2021/01/09 04:10:52;;;;;;;39.90;26.97;;;;;;;1.50;71.50;100078.45;1723861;81;21648;-92
2021/01/09 04:13:20;;;;;;;36.77;25.50;;;;;;;1.51;71.45;100078.81;1717984;81;21316;-95
2021/01/09 04:15:50;;;;;;;35.10;24.63;;;;;;;1.62;71.25;100076.55;1700718;83;21201;-92
2021/01/09 04:18:21;;;;;;;33.70;22.97;;;;;;;1.79;70.83;100078.13;1737330;81;21198;-92
2021/01/09 04:20:51;;;;;;;34.17;23.70;;;;;;;1.80;70.60;100081.13;1733464;81;21183;-92
2021/01/09 04:23:19;;;;;;;28.77;20.13;;;;;;;1.75;70.75;100087.63;1737286;80;21129;-89
2021/01/09 04:25:55;;;;;;;29.93;22.87;;;;;;;1.71;70.65;100094.13;1731246;80;21219;-92
2021/01/09 04:28:26;;;;;;;32.53;22.40;;;;;;;1.61;70.74;100086.70;1682389;80;21176;-92
2021/01/09 04:30:57;;;;;;;36.60;24.70;;;;;;;1.58;71.00;100090.09;1716540;81;21365;-92
2021/01/09 04:33:30;;;;;;;33.40;23.40;;;;;;;1.59;71.02;100091.27;1712664;81;21641;-92
2021/01/09 04:36:06;;;;;;;27.83;20.17;;;;;;;1.58;71.12;100096.16;1682382;81;21110;-91
2021/01/09 04:38:37;;;;;;;30.03;22.00;;;;;;;1.55;71.21;100091.20;1736435;81;21180;-90
2021/01/09 04:41:04;;;;;;;35.10;24.43;;;;;;;1.53;71.23;100092.64;1753249;80;21634;-92
2021/01/09 04:43:33;;;;;;;37.03;24.90;;;;;;;1.61;71.10;100092.45;1758036;80;21170;-93
2021/01/09 04:46:01;;;;;;;34.37;25.00;;;;;;;1.62;71.10;100084.44;1721058;81;21174;-90
2021/01/09 04:48:31;;;;;;;37.07;25.57;;;;;;;1.60;71.25;100094.26;1718170;81;21140;-91
2021/01/09 04:51:01;;;;;;;35.17;25.63;;;;;;;1.61;71.39;100095.08;1731113;80;21176;-92
2021/01/09 04:53:35;;;;;;;34.47;24.23;;;;;;;1.62;71.48;100093.63;1727171;81;21313;-89
2021/01/09 04:56:05;;;;;;;32.33;23.70;;;;;;;1.62;71.39;100098.03;1749889;80;21159;-85
2021/01/09 04:58:33;;;;;;;32.87;23.33;;;;;;;1.64;71.19;100104.83;1762280;80;21121;-88
2021/01/09 05:01:02;;;;;;;31.23;21.67;;;;;;;1.61;71.28;100102.95;1725787;81;21131;-86
2021/01/09 05:03:29;;;;;;;39.97;26.40;;;;;;;1.65;71.37;100101.72;1750679;80;21122;-88
2021/01/09 05:05:57;;;;;;;40.33;28.80;;;;;;;1.78;71.02;100104.91;1731850;81;21285;-90
2021/01/09 05:08:25;;;;;;;35.27;27.17;;;;;;;1.83;70.86;100103.17;1690948;84;21665;-87
2021/01/09 05:10:55;;;;;;;41.43;28.80;;;;;;;1.79;70.94;100106.58;1691529;82;21200;-88
2021/01/09 05:13:23;;;;;;;41.27;29.83;;;;;;;1.79;70.96;100115.78;1689691;84;21168;-88
2021/01/09 05:15:54;;;;;;;50.93;35.37;;;;;;;1.80;71.01;100108.72;1692502;84;21653;-88
2021/01/09 05:18:22;;;;;;;50.27;35.43;;;;;;;1.80;70.87;100110.03;1681955;84;21194;-89
2021/01/09 05:20:51;;;;;;;50.10;35.27;;;;;;;1.74;70.95;100110.91;1672925;84;21696;-90
2021/01/09 05:23:21;;;;;;;42.80;31.13;;;;;;;1.84;70.89;100121.44;1683377;84;21239;-90
2021/01/09 05:25:48;;;;;;;40.00;28.80;;;;;;;1.90;70.79;100114.80;1656660;84;21298;-87
2021/01/09 05:28:16;;;;;;;43.63;30.73;;;;;;;1.87;70.91;100119.03;1653246;84;21215;-88
2021/01/09 05:30:43;;;;;;;37.53;28.13;;;;;;;1.80;71.02;100121.36;1677874;81;21286;-87
2021/01/09 05:33:10;;;;;;;42.93;30.07;;;;;;;1.77;71.17;100121.63;1687699;81;21244;-83
2021/01/09 05:35:39;;;;;;;74.27;49.10;;;;;;;1.74;71.24;100125.37;1705844;81;21140;-86
2021/01/09 05:38:06;;;;;;;56.87;39.97;;;;;;;1.80;71.12;100128.43;1763720;79;21170;-87
2021/01/09 05:40:40;;;;;;;50.83;35.83;;;;;;;1.91;70.88;100131.75;1756567;81;21226;-88
2021/01/09 05:43:09;;;;;;;45.90;32.00;;;;;;;1.97;70.80;100134.31;1772199;81;21742;-89
2021/01/09 05:45:38;;;;;;;40.67;28.67;;;;;;;1.93;71.03;100132.93;1731743;81;21355;-88
2021/01/09 05:48:07;;;;;;;40.90;28.73;;;;;;;1.93;71.03;100139.02;1707642;83;21231;-88
2021/01/09 05:50:38;;;;;;;38.20;27.80;;;;;;;1.92;71.16;100140.00;1694479;81;21195;-89
2021/01/09 05:53:05;;;;;;;37.00;25.23;;;;;;;1.92;71.17;100143.94;1728433;82;21317;-90
2021/01/09 05:55:40;;;;;;;40.33;27.50;;;;;;;1.87;71.59;100141.38;1696901;82;21106;-90
2021/01/09 05:58:11;;;;;;;50.97;34.17;;;;;;;1.92;71.62;100140.45;1729272;80;21448;-89
2021/01/09 06:00:38;;;;;;;48.37;31.27;;;;;;;1.97;71.62;100144.01;1710710;81;21328;-91
2021/01/09 06:03:23;;;;;;;39.40;27.73;;;;;;;1.92;72.08;100149.66;1716335;81;21810;-88
2021/01/09 06:05:51;;;;;;;41.13;28.97;;;;;;;1.86;72.37;100147.58;1749327;81;21075;-91
2021/01/09 06:08:33;;;;;;;40.13;28.13;;;;;;;1.79;72.72;100150.41;1744995;81;21913;-92
2021/01/09 06:11:20;;;;;;;39.07;27.43;;;;;;;1.74;72.98;100158.71;1694011;77;21215;-92
2021/01/09 06:14:01;;;;;;;38.63;28.23;;;;;;;1.74;73.08;100157.39;1730591;79;21183;-93
2021/01/09 06:17:27;;;;;;;36.77;24.70;;;;;;;1.85;72.86;100169.10;1750609;77;21089;31
2021/01/09 06:20:48;;;;;;;46.37;26.73;;;;;;;1.87;72.97;100164.54;1582858;88;21203;-93
2021/01/09 06:37:07;;;;;;;39.27;27.53;;;;;;;1.61;73.71;100178.66;1790439;75;21156;-79
2021/01/09 06:39:40;;;;;;;37.07;26.30;;;;;;;1.80;73.34;100174.42;1772304;79;22699;-85
2021/01/09 06:42:09;;;;;;;33.40;22.50;;;;;;;1.84;72.92;100184.52;1669777;82;21190;-85
2021/01/09 06:44:38;;;;;;;34.50;24.83;;;;;;;1.82;72.81;100186.94;1752799;81;21319;-87
2021/01/09 06:47:07;;;;;;;30.30;22.03;;;;;;;1.80;72.90;100195.45;1747764;80;21433;-83
2021/01/09 06:49:37;;;;;;;37.60;25.87;;;;;;;1.78;72.91;100186.37;1681274;82;21164;-84
2021/01/09 06:55:05;;;;;;;34.73;23.00;;;;;;;1.93;72.54;100187.64;1810266;78;23108;-87
2021/01/09 06:57:34;;;;;;;35.93;25.90;;;;;;;2.02;72.25;100194.38;1768637;79;21256;-86
2021/01/09 07:00:08;;;;;;;31.13;21.90;;;;;;;2.07;72.11;100200.04;1755246;79;21214;-85
2021/01/09 07:02:39;;;;;;;33.93;25.00;;;;;;;2.04;72.18;100193.27;1765527;80;21616;-85
2021/01/09 07:05:09;;;;;;;31.43;22.23;;;;;;;2.00;72.15;100194.97;1718098;82;21900;-86
2021/01/09 07:07:52;;;;;;;35.93;26.90;;;;;;;1.98;71.97;100188.56;1657911;85;21219;-86
2021/01/09 07:10:28;;;;;;;33.50;24.00;;;;;;;1.97;72.05;100193.95;1665955;84;21829;-85
2021/01/09 07:12:58;;;;;;;34.97;24.83;;;;;;;1.93;71.91;100190.27;1657665;85;21212;-86
2021/01/09 07:15:27;;;;;;;29.17;21.37;;;;;;;1.99;71.86;100196.78;1664690;85;21232;-87
2021/01/09 07:17:59;;;;;;;32.67;24.53;;;;;;;2.14;71.44;100198.53;1652821;85;21422;-87
2021/01/09 07:20:37;;;;;;;32.00;23.37;;;;;;;2.17;71.41;100198.73;1647402;82;21198;-87
2021/01/09 07:23:06;;;;;;;27.20;21.37;;;;;;;2.11;71.64;100210.16;1657686;82;21153;-85
2021/01/09 07:25:41;;;;;;;37.53;26.57;;;;;;;2.05;71.77;100204.61;1653271;82;21285;-85
2021/01/09 07:28:22;;;;;;;33.17;24.33;;;;;;;2.03;71.79;100211.80;1655265;82;21133;-89
2021/01/09 07:31:06;;;;;;;32.90;23.57;;;;;;;1.97;71.80;100204.47;1649105;84;21474;-86
2021/01/09 07:33:34;;;;;;;38.23;26.20;;;;;;;1.95;72.10;100211.99;1628467;86;21255;-87
2021/01/09 07:36:03;;;;;;;37.37;26.83;;;;;;;2.07;71.92;100215.81;1662550;83;21359;-84
2021/01/09 07:38:31;;;;;;;38.27;27.00;;;;;;;2.18;71.64;100210.92;1661025;84;21239;-82
2021/01/09 07:41:01;;;;;;;37.90;26.83;;;;;;;2.20;71.75;100208.98;1665608;84;21233;-84
2021/01/09 07:43:47;;;;;;;41.67;28.00;;;;;;;2.17;71.68;100209.25;1667977;84;21215;-83
2021/01/09 07:46:28;;;;;;;36.00;24.77;;;;;;;2.14;71.53;100210.37;1662449;84;21151;-85
2021/01/09 07:49:00;;;;;;;35.37;26.57;;;;;;;2.13;71.67;100212.17;1669164;84;21202;-85
2021/01/09 07:52:02;;;;;;;36.00;27.13;;;;;;;2.12;71.54;100212.30;1671416;84;21215;-86
2021/01/09 07:54:36;;;;;;;40.80;27.60;;;;;;;2.09;71.62;100214.73;1679008;84;21289;-88
2021/01/09 07:57:21;;;;;;;39.27;26.13;;;;;;;2.18;71.68;100216.19;1666191;84;21235;-88
2021/01/09 08:00:09;;;;;;;32.53;23.00;;;;;;;2.33;71.26;100228.78;1672271;84;21681;-87
2021/01/09 08:02:43;;;;;;;34.70;26.03;;;;;;;2.39;70.88;100219.50;1647246;84;21338;-84
2021/01/09 08:05:21;;;;;;;37.30;26.73;;;;;;;2.33;70.96;100220.06;1654890;84;21180;-88
2021/01/09 08:08:19;;;;;;;31.90;23.33;;;;;;;2.36;70.96;100217.66;1771962;79;22513;-87
2021/01/09 08:10:47;;;;;;;36.83;26.10;;;;;;;2.26;71.04;100221.58;1736791;81;21304;-86
2021/01/09 08:13:21;;;;;;;31.97;22.60;;;;;;;2.21;70.71;100223.32;1747161;81;21188;-87
2021/01/09 08:15:54;;;;;;;38.80;26.43;;;;;;;2.17;70.98;100222.39;1719041;81;21212;-91
2021/01/09 08:18:25;;;;;;;36.35;25.55;;;;;;;2.23;70.82;100225.81;1738460;81;21178;-87
2021/01/09 08:31:25;;;;;;;39.50;34.83;;;;;;;2.25;70.98;100219.94;1756744;80;28925;-88
2021/01/09 08:34:03;;;;;;;36.13;26.53;;;;;;;2.50;70.38;100220.69;1817352;77;22400;-87
2021/01/09 08:36:30;;;;;;;33.67;24.43;;;;;;;2.59;69.89;100221.66;1770340;79;21510;-87
2021/01/09 08:38:59;;;;;;;32.40;23.77;;;;;;;2.60;69.75;100219.39;1778916;78;21167;-86
2021/01/09 08:41:36;;;;;;;31.57;22.97;;;;;;;2.72;69.26;100214.80;1784967;80;21183;-87
2021/01/09 08:44:15;;;;;;;36.53;26.70;;;;;;;2.76;69.03;100212.22;1778600;80;21752;-92
2021/01/09 08:46:45;;;;;;;38.93;27.53;;;;;;;2.65;69.12;100213.20;1761978;80;21332;-89
2021/01/09 08:49:27;;;;;;;39.87;27.40;;;;;;;2.56;69.80;100207.95;1768188;80;21270;-90
2021/01/09 08:52:18;;;;;;;32.67;25.20;;;;;;;2.53;69.57;100207.26;1785855;80;21169;-93
2021/01/09 08:54:49;;;;;;;30.07;21.37;;;;;;;2.53;69.52;100203.80;1730277;81;21160;-92
2021/01/09 08:57:45;;;;;;;35.90;31.42;;;;;;;2.55;69.22;100202.36;1760238;79;28170;-88
2021/01/09 09:00:16;;;;;;;32.03;25.27;;;;;;;2.67;68.88;100208.62;1713859;82;21234;-90
2021/01/09 09:23:33;;;;;;;33.57;23.67;;;;;;;2.63;68.55;100197.22;1573708;88;21294;-93
2021/01/09 10:04:54;;;;;;;28.27;19.93;;;;;;;2.57;66.97;100155.19;1636416;86;21225;-89
2021/01/09 10:08:13;;;;;;;21.40;16.20;;;;;;;2.59;66.75;100168.20;1640648;85;21165;-92
2021/01/09 10:11:45;;;;;;;;;;;;;;;2.66;66.81;100169.31;1569806;85;21574;-94
2021/01/09 10:14:44;;;;;;;25.07;19.63;;;;;;;2.69;66.62;100167.69;1622284;85;20189;-94
2021/01/09 10:17:40;;;;;;;25.33;18.53;;;;;;;2.83;65.74;100173.02;1651806;85;21176;-92
2021/01/09 10:20:30;;;;;;;25.23;18.50;;;;;;;2.82;65.55;100160.31;1644630;86;21142;-92
2021/01/09 10:26:39;;;;;;;23.83;18.47;;;;;;;2.73;65.33;100154.59;1630415;82;21274;-93
2021/01/09 10:32:52;;;;;;;19.87;15.90;;;;;;;2.67;65.04;100152.53;1695465;83;21178;-91
2021/01/09 10:36:09;;;;;;;24.03;17.40;;;;;;;2.65;65.70;100148.72;1634257;84;21133;-93
2021/01/09 10:50:17;;;;;;;23.57;16.77;;;;;;;2.75;64.92;100146.09;1827499;76;26923;-95
2021/01/09 11:11:21;;;;;;;19.40;16.67;;;;;;;4.55;58.92;100128.73;1783860;78;22702;-94
2021/01/09 11:14:15;;;;;;;19.17;16.12;;;;;;;4.41;59.44;100139.36;1705901;80;21150;-94
2021/01/09 11:17:49;;;;;;;22.90;17.13;;;;;;;4.17;59.21;100134.70;1636863;85;21637;-92
2021/01/09 11:20:50;;;;;;;22.73;17.80;;;;;;;3.90;59.61;100143.53;1731580;79;21133;-93
2021/01/09 11:24:02;;;;;;;26.30;21.05;;;;;;;3.68;60.10;100146.92;1699833;81;21190;-91
2021/01/09 11:26:55;;;;;;;25.13;20.43;;;;;;;3.55;60.61;100147.77;1677169;80;21380;-91
2021/01/09 11:29:56;;;;;;;20.10;16.63;;;;;;;3.46;60.79;100144.69;1724432;81;21160;-92
2021/01/09 11:32:31;;;;;;;27.73;18.50;;;;;;;3.41;60.75;100147.78;1725516;80;21192;-91
2021/01/09 11:35:02;;;;;;;24.57;19.47;;;;;;;3.32;60.34;100142.07;1711083;82;21165;-91
2021/01/09 11:37:37;;;;;;;25.07;19.00;;;;;;;3.04;60.60;100109.13;1722939;81;21213;-95
2021/01/09 11:40:35;;;;;;;30.90;21.80;;;;;;;3.33;60.76;100147.66;1706295;81;21316;-93
2021/01/09 11:43:14;;;;;;;20.60;15.87;;;;;;;3.28;60.59;100155.20;1712713;80;21307;-93
2021/01/09 11:45:44;;;;;;;25.30;17.03;;;;;;;3.19;59.36;100160.84;1716279;81;21201;-91
2021/01/09 11:48:25;;;;;;;23.73;18.67;;;;;;;3.01;59.31;100154.66;1722593;81;21146;-91
2021/01/09 11:51:23;;;;;;;22.27;15.47;;;;;;;2.92;59.37;100165.09;1603671;86;21290;-87
2021/01/09 11:57:08;;;;;;;21.70;17.43;;;;;;;2.80;59.07;100160.13;1697564;82;21104;-89
2021/01/09 12:00:30;;;;;;;25.10;18.77;;;;;;;2.68;59.51;100156.84;1774787;78;23082;-90
2021/01/09 12:03:16;;;;;;;24.60;18.03;;;;;;;2.60;59.66;100167.22;1636056;85;21247;-89
2021/01/09 12:06:06;;;;;;;21.65;16.42;;;;;;;2.61;59.55;100162.31;1609151;87;21215;-93
2021/01/09 12:08:37;;;;;;;20.87;15.47;;;;;;;2.61;59.30;100159.19;1603157;88;21192;-90
2021/01/09 12:11:06;;;;;;;21.70;16.80;;;;;;;2.66;59.08;100158.78;1553852;88;21147;-92
2021/01/09 12:13:42;;;;;;;22.80;17.23;;;;;;;2.67;59.02;100167.83;1567739;87;21160;-90
2021/01/09 12:16:30;;;;;;;22.67;17.57;;;;;;;2.67;58.85;100163.88;1595279;85;21207;-91
2021/01/09 12:19:16;;;;;;;23.63;17.17;;;;;;;2.69;58.75;100168.55;1568592;88;21196;-92
2021/01/09 12:38:39;;;;;;;23.93;17.67;;;;;;;2.68;58.69;100180.03;1687316;82;21176;-92
2021/01/09 12:42:06;;;;;;;23.07;17.57;;;;;;;2.77;58.21;100176.20;1837188;76;23421;-90
2021/01/09 12:44:56;;;;;;;21.00;16.13;;;;;;;2.73;58.24;100178.28;1761447;78;21201;-90
2021/01/09 12:54:19;;;;;;;22.80;17.80;;;;;;;2.63;58.23;100182.25;1720336;80;21187;-90
2021/01/09 12:56:55;;;;;;;23.37;17.20;;;;;;;2.56;58.22;100189.03;1712251;83;21132;-89
2021/01/09 12:59:50;;;;;;;26.83;17.63;;;;;;;2.59;58.60;100182.19;1695272;82;21246;-90
2021/01/09 13:02:38;;;;;;;;;;;;;;;;;;;;;
2021/01/09 13:05:54;;;;;;;22.07;16.23;;;;;;;2.64;58.80;100171.25;1676378;84;21172;-93
2021/01/09 13:24:30;;;;;;;;;;;;;;;;;;;;;
2021/01/09 13:27:56;;;;;;;20.73;15.73;;;;;;;2.33;59.09;100192.45;1785580;78;26909;-90
2021/01/09 13:31:03;;;;;;;20.27;15.13;;;;;;;2.25;59.37;100198.89;1718683;79;21249;-92
2021/01/09 13:34:25;;;;;;;;;;;;;;;;;;;;;
2021/01/09 13:36:51;;;;;;;18.57;14.37;;;;;;;2.24;59.51;100195.91;1762068;78;21211;-90
2021/01/09 13:39:31;;;;;;;20.77;16.30;;;;;;;2.23;59.37;100199.52;1776432;78;21347;-90
2021/01/09 13:53:30;;;;;;;13.00;9.17;;;;;;;2.06;60.25;100196.59;1753586;78;27824;-93
2021/01/09 13:56:38;;;;;;;15.93;11.40;;;;;;;1.97;60.61;100201.34;1764667;79;21211;-91
2021/01/09 14:00:06;;;;;;;15.10;10.93;;;;;;;1.98;60.78;100208.28;1750186;80;21184;-91
2021/01/09 14:03:53;;;;;;;;;;;;;;;;;;;;;
2021/01/09 14:20:56;;;;;;;13.27;10.87;;;;;;;1.92;62.37;100202.23;1768731;80;26233;-91
2021/01/09 14:24:01;;;;;;;17.17;12.67;;;;;;;1.93;62.31;100198.16;1859978;74;23302;-90
2021/01/09 14:26:46;;;;;;;15.57;12.47;;;;;;;1.86;62.32;100208.03;1833294;76;21582;-90
2021/01/09 14:29:22;;;;;;;15.70;11.63;;;;;;;1.87;62.48;100214.48;1796209;79;21228;-93
2021/01/09 14:32:00;;;;;;;13.10;10.87;;;;;;;1.87;62.73;100205.28;1835441;76;21129;-92
2021/01/09 14:34:31;;;;;;;15.57;12.10;;;;;;;1.91;62.97;100207.98;1832487;77;21155;-88
2021/01/09 14:37:03;;;;;;;15.97;12.20;;;;;;;1.45;63.00;100134.98;1712888;80;21099;-90
2021/01/09 14:39:31;;;;;;;17.13;13.67;;;;;;;1.95;63.29;100212.48;1741865;81;21185;-92
2021/01/09 14:42:02;;;;;;;22.50;17.87;;;;;;;1.94;63.25;100216.06;1739694;81;21366;-91
2021/01/09 14:45:04;;;;;;;;;;;;;;;;;;;;;
2021/01/09 14:48:12;;;;;;;21.20;17.17;;;;;;;1.98;63.45;100224.05;1730728;81;21192;-92
2021/01/09 14:51:03;;;;;;;;;;;;;;;1.96;63.80;100228.62;1710238;82;21115;-91
2021/01/09 14:54:17;;;;;;;25.83;19.83;;;;;;;1.89;64.01;100231.44;1738577;81;20210;-92
2021/01/09 14:57:07;;;;;;;27.90;19.43;;;;;;;1.83;64.18;100239.38;1695296;82;21320;-93
2021/01/09 15:00:01;;;;;;;19.70;15.50;;;;;;;1.30;64.28;100141.94;1738871;82;21156;-92
2021/01/09 15:03:14;;;;;;;22.67;16.70;;;;;;;1.88;64.52;100225.81;1740114;81;21138;-92
2021/01/09 15:06:41;;;;;;;20.73;16.07;;;;;;;1.88;64.60;100222.70;1710963;81;21105;-93
2021/01/09 15:09:35;;;;;;;24.33;17.27;;;;;;;0.70;64.82;100040.80;1704266;82;21291;-92
2021/01/09 15:12:33;;;;;;;23.40;17.82;;;;;;;1.92;64.86;100229.83;1744345;81;21596;-91
2021/01/09 15:15:14;;;;;;;26.97;19.95;;;;;;;1.93;65.01;100230.19;1745361;81;21165;-92
2021/01/09 15:18:23;;;;;;;26.20;20.80;;;;;;;1.95;65.02;100230.89;1727842;82;21187;-91
2021/01/09 15:21:27;;;;;;;25.47;19.90;;;;;;;1.93;65.15;100233.64;1752973;81;21336;-92
2021/01/09 15:24:22;;;;;;;23.43;17.70;;;;;;;1.92;65.09;100237.25;1736878;81;21136;-92
2021/01/09 15:27:30;;;;;;;20.80;16.33;;;;;;;1.95;65.15;100242.72;1737726;81;21314;-92
2021/01/09 15:30:17;;;;;;;;;;;;;;;;;;;;;
2021/01/09 15:47:18;;;;;;;28.57;25.25;;;;;;;1.88;64.90;100246.84;1748166;79;28311;-93
2021/01/09 15:50:01;;;;;;;26.80;21.23;;;;;;;2.12;64.45;100251.25;1755546;80;23790;-92
2021/01/09 15:52:32;;;;;;;25.97;19.80;;;;;;;2.23;63.83;100254.25;1762464;80;21307;-89